createdAt,value
2018-10-12T00:00:07.767Z,17.20
2018-10-12T00:02:36.635Z,17.10
2018-10-12T00:05:06.166Z,17.10
2018-10-12T00:07:35.136Z,17.10
2018-10-12T00:10:04.089Z,17.00
2018-10-12T00:12:33.175Z,17.00
2018-10-12T00:15:02.042Z,16.90
2018-10-12T00:17:30.926Z,16.90
2018-10-12T00:19:59.760Z,16.80
2018-10-12T00:22:28.593Z,16.80
2018-10-12T00:24:57.497Z,16.70
2018-10-12T00:27:26.503Z,16.70
2018-10-12T00:29:55.365Z,16.70
2018-10-12T00:32:24.260Z,16.60
2018-10-12T00:34:53.088Z,16.60
2018-10-12T00:37:21.918Z,16.60
2018-10-12T00:39:50.770Z,16.60
2018-10-12T00:42:19.616Z,16.60
2018-10-12T00:44:48.488Z,16.60
2018-10-12T00:47:17.333Z,16.50
2018-10-12T00:49:46.238Z,16.50
2018-10-12T00:52:15.613Z,16.50
2018-10-12T00:54:44.491Z,16.50
2018-10-12T00:57:13.375Z,16.50
2018-10-12T00:59:42.229Z,16.50
2018-10-12T01:02:11.478Z,16.50
2018-10-12T01:04:40.446Z,16.50
2018-10-12T01:07:09.312Z,16.60
2018-10-12T01:09:38.509Z,16.60
2018-10-12T01:12:18.758Z,16.60
2018-10-12T01:14:48.179Z,16.60
2018-10-12T01:17:17.019Z,16.70
2018-10-12T01:19:45.889Z,16.70
2018-10-12T01:22:14.796Z,16.70
2018-10-12T01:24:43.725Z,16.70
2018-10-12T01:27:12.618Z,16.70
2018-10-12T01:29:41.479Z,16.80
2018-10-12T01:32:14.896Z,16.80
2018-10-12T01:34:43.776Z,16.80
2018-10-12T01:37:12.592Z,16.80
2018-10-12T01:39:41.434Z,16.80
2018-10-12T01:42:10.268Z,16.90
2018-10-12T01:44:39.559Z,16.90
2018-10-12T01:47:08.491Z,16.90
2018-10-12T01:49:37.669Z,16.90
2018-10-12T01:52:06.823Z,16.90
2018-10-12T01:54:35.671Z,16.90
2018-10-12T01:57:04.519Z,16.90
2018-10-12T01:59:33.440Z,16.90
2018-10-12T02:02:02.859Z,16.90
2018-10-12T02:04:32.757Z,16.90
2018-10-12T02:07:02.491Z,16.90
2018-10-12T02:09:31.340Z,16.90
2018-10-12T02:12:00.200Z,16.80
2018-10-12T02:14:30.218Z,16.80
2018-10-12T02:16:59.076Z,16.70
2018-10-12T02:19:27.948Z,16.70
2018-10-12T02:21:57.124Z,16.60
2018-10-12T02:24:25.960Z,16.60
2018-10-12T02:26:54.885Z,16.50
2018-10-12T02:29:23.725Z,16.50
2018-10-12T02:31:52.567Z,16.50
2018-10-12T02:34:21.486Z,16.50
2018-10-12T02:36:50.327Z,16.50
2018-10-12T02:39:19.184Z,16.40
2018-10-12T02:41:48.100Z,16.40
2018-10-12T02:44:16.978Z,16.40
2018-10-12T02:46:45.846Z,16.30
2018-10-12T02:49:14.723Z,16.30
2018-10-12T02:51:43.594Z,16.20
2018-10-12T02:54:12.812Z,16.20
2018-10-12T02:56:41.661Z,16.20
2018-10-12T02:59:10.519Z,16.10
2018-10-12T03:01:39.429Z,16.10
2018-10-12T03:04:08.308Z,16.00
2018-10-12T03:06:37.202Z,16.00
2018-10-12T03:09:08.948Z,16.00
2018-10-12T03:11:37.810Z,15.90
2018-10-12T03:14:06.885Z,15.80
2018-10-12T03:16:35.770Z,15.80
2018-10-12T03:19:04.667Z,15.80
2018-10-12T03:21:33.731Z,15.70
2018-10-12T03:24:02.573Z,15.60
2018-10-12T03:26:31.428Z,15.60
2018-10-12T03:29:00.279Z,15.50
2018-10-12T03:31:29.865Z,15.40
2018-10-12T03:33:58.804Z,15.40
2018-10-12T03:36:28.462Z,15.40
2018-10-12T03:38:57.324Z,15.30
2018-10-12T03:41:26.525Z,15.30
2018-10-12T03:43:55.376Z,15.20
2018-10-12T03:46:24.658Z,15.20
2018-10-12T03:48:53.863Z,15.10
2018-10-12T03:51:22.753Z,15.00
2018-10-12T03:53:51.629Z,15.00
2018-10-12T03:56:20.847Z,15.00
2018-10-12T03:58:49.746Z,14.90
2018-10-12T04:01:18.601Z,14.80
2018-10-12T04:03:47.479Z,14.80
2018-10-12T04:06:16.372Z,14.80
2018-10-12T04:08:45.219Z,14.80
2018-10-12T04:11:13.500Z,14.70
2018-10-12T04:13:42.706Z,14.70
2018-10-12T04:16:10.974Z,14.70
2018-10-12T04:18:39.822Z,14.70
2018-10-12T04:21:08.238Z,14.60
2018-10-12T04:23:36.532Z,14.60
2018-10-12T04:26:04.830Z,14.60
2018-10-12T04:28:33.177Z,14.50
2018-10-12T04:31:01.560Z,14.50
2018-10-12T04:33:29.864Z,14.50
2018-10-12T04:35:58.712Z,14.40
2018-10-12T04:38:32.070Z,14.40
2018-10-12T04:41:07.486Z,14.40
2018-10-12T04:43:36.303Z,14.40
2018-10-12T04:46:06.688Z,14.40
2018-10-12T04:48:36.107Z,14.40
2018-10-12T04:51:06.785Z,14.40
2018-10-12T04:53:35.594Z,14.30
2018-10-12T04:56:07.245Z,14.30
2018-10-12T04:58:35.537Z,14.30
2018-10-12T05:01:04.262Z,14.30
2018-10-12T05:03:32.804Z,14.30
2018-10-12T05:06:01.373Z,14.20
2018-10-12T05:08:29.731Z,14.20
2018-10-12T05:10:58.035Z,14.20
2018-10-12T05:13:26.315Z,14.20
2018-10-12T05:15:55.218Z,14.10
2018-10-12T05:18:23.525Z,14.10
2018-10-12T05:20:51.780Z,14.10
2018-10-12T05:23:20.099Z,14.00
2018-10-12T05:25:48.444Z,14.00
2018-10-12T05:28:16.728Z,14.00
2018-10-12T05:30:45.282Z,14.00
2018-10-12T05:33:13.964Z,13.90
2018-10-12T05:35:42.241Z,14.00
2018-10-12T05:38:10.594Z,13.90
2018-10-12T05:40:38.896Z,13.90
2018-10-12T05:43:07.287Z,13.90
2018-10-12T05:45:35.736Z,13.90
2018-10-12T05:48:15.397Z,13.90
2018-10-12T05:50:44.247Z,13.90
2018-10-12T05:53:12.596Z,13.90
2018-10-12T05:55:41.180Z,13.90
2018-10-12T05:58:09.892Z,13.90
2018-10-12T06:00:38.211Z,13.90
2018-10-12T06:03:06.763Z,13.90
2018-10-12T06:05:35.551Z,13.90
2018-10-12T06:08:03.861Z,13.90
2018-10-12T06:10:32.193Z,13.90
2018-10-12T06:13:00.480Z,13.90
2018-10-12T06:15:28.844Z,13.90
2018-10-12T06:17:57.327Z,13.90
2018-10-12T06:20:25.626Z,13.90
2018-10-12T06:22:53.916Z,13.90
2018-10-12T06:25:22.279Z,13.90
2018-10-12T06:27:50.668Z,13.90
2018-10-12T06:30:19.023Z,13.90
2018-10-12T06:32:48.127Z,13.90
2018-10-12T06:35:16.591Z,13.90
2018-10-12T06:37:44.950Z,14.00
2018-10-12T06:40:13.216Z,14.00
2018-10-12T06:42:41.758Z,14.00
2018-10-12T06:45:10.662Z,14.00
2018-10-12T06:47:39.338Z,14.10
2018-10-12T06:50:07.724Z,14.10
2018-10-12T06:52:37.010Z,14.20
2018-10-12T06:55:06.831Z,14.20
2018-10-12T06:57:35.746Z,14.30
2018-10-12T07:00:05.456Z,14.30
2018-10-12T07:02:34.424Z,14.40
2018-10-12T07:05:03.292Z,14.40
2018-10-12T07:07:32.176Z,14.40
2018-10-12T07:10:01.040Z,14.40
2018-10-12T07:12:30.116Z,14.40
2018-10-12T07:14:59.051Z,14.40
2018-10-12T07:17:27.881Z,14.40
2018-10-12T07:19:56.745Z,14.40
2018-10-12T07:22:25.608Z,14.40
2018-10-12T07:24:54.503Z,14.40
2018-10-12T07:27:23.363Z,14.40
2018-10-12T07:29:52.218Z,14.30
2018-10-12T07:32:21.087Z,14.40
2018-10-12T07:34:49.979Z,14.40
2018-10-12T07:37:18.899Z,14.40
2018-10-12T07:39:47.847Z,14.40
2018-10-12T07:42:16.721Z,14.50
2018-10-12T07:44:45.813Z,14.60
2018-10-12T07:47:15.252Z,14.70
2018-10-12T07:49:44.320Z,14.70
2018-10-12T07:52:13.319Z,14.80
2018-10-12T07:54:42.195Z,14.90
2018-10-12T07:57:13.164Z,15.10
2018-10-12T07:59:42.858Z,15.10
2018-10-12T08:02:12.224Z,15.20
2018-10-12T08:04:41.886Z,15.30
2018-10-12T08:07:11.826Z,15.30
2018-10-12T08:09:40.969Z,15.40
2018-10-12T08:12:09.888Z,15.40
2018-10-12T08:14:38.774Z,15.50
2018-10-12T08:17:07.945Z,15.60
2018-10-12T08:19:37.198Z,15.60
2018-10-12T08:22:06.132Z,15.60
2018-10-12T08:24:35.322Z,15.70
2018-10-12T08:27:04.640Z,15.70
2018-10-12T08:29:33.574Z,15.80
2018-10-12T08:32:02.786Z,15.80
2018-10-12T08:34:31.856Z,15.90
2018-10-12T08:37:00.703Z,16.00
2018-10-12T08:39:29.566Z,16.00
2018-10-12T08:41:58.525Z,16.10
2018-10-12T08:44:27.520Z,16.10
2018-10-12T08:46:56.725Z,16.20
2018-10-12T08:49:26.011Z,16.20
2018-10-12T08:51:54.933Z,16.30
2018-10-12T08:54:23.937Z,16.30
2018-10-12T08:56:52.954Z,16.40
2018-10-12T08:59:21.865Z,16.40
2018-10-12T09:01:50.753Z,16.50
2018-10-12T09:04:19.623Z,16.50
2018-10-12T09:06:48.832Z,16.60
2018-10-12T09:09:17.687Z,16.70
2018-10-12T09:11:46.568Z,16.80
2018-10-12T09:14:15.459Z,16.80
2018-10-12T09:16:44.335Z,16.90
2018-10-12T09:19:13.223Z,17.00
2018-10-12T09:21:42.105Z,17.10
2018-10-12T09:24:11.124Z,17.20
2018-10-12T09:26:40.349Z,17.30
2018-10-12T09:29:09.209Z,17.30
2018-10-12T09:31:38.074Z,17.40
2018-10-12T09:34:07.020Z,17.50
2018-10-12T09:36:35.932Z,17.60
2018-10-12T09:39:06.175Z,17.70
2018-10-12T09:41:35.597Z,17.80
2018-10-12T09:44:04.435Z,17.80
2018-10-12T09:46:33.325Z,17.90
2018-10-12T09:49:02.178Z,17.90
2018-10-12T09:51:31.597Z,17.90
2018-10-12T09:54:00.515Z,17.90
2018-10-12T09:56:29.414Z,17.90
2018-10-12T09:58:58.311Z,17.90
2018-10-12T10:01:32.455Z,18.00
2018-10-12T10:04:06.592Z,18.00
2018-10-12T10:06:35.664Z,18.10
2018-10-12T10:09:05.743Z,18.10
2018-10-12T10:11:35.269Z,18.10
2018-10-12T10:14:04.275Z,18.20
2018-10-12T10:16:33.252Z,18.30
2018-10-12T10:19:02.230Z,18.30
2018-10-12T10:21:31.101Z,18.40
2018-10-12T10:23:59.978Z,18.50
2018-10-12T10:26:28.839Z,18.50
2018-10-12T10:28:57.719Z,18.50
2018-10-12T10:31:26.582Z,18.60
2018-10-12T10:33:55.487Z,18.60
2018-10-12T10:36:24.629Z,18.70
2018-10-12T10:38:53.723Z,18.80
2018-10-12T10:41:22.953Z,18.90
2018-10-12T10:43:51.858Z,19.00
2018-10-12T10:46:20.855Z,19.00
2018-10-12T10:48:49.852Z,19.00
2018-10-12T10:51:19.011Z,19.10
2018-10-12T10:53:47.935Z,19.10
2018-10-12T10:56:16.790Z,19.10
2018-10-12T10:58:45.868Z,19.20
2018-10-12T11:01:14.673Z,19.30
2018-10-12T11:03:43.649Z,19.30
2018-10-12T11:06:12.622Z,19.30
2018-10-12T11:08:41.489Z,19.40
2018-10-12T11:11:10.378Z,19.50
2018-10-12T11:13:39.290Z,19.60
2018-10-12T11:16:08.146Z,19.70
2018-10-12T11:18:37.044Z,19.80
2018-10-12T11:21:06.836Z,19.90
2018-10-12T11:23:35.883Z,19.90
2018-10-12T11:26:04.873Z,20.00
2018-10-12T11:28:33.901Z,20.10
2018-10-12T11:31:02.808Z,20.10
2018-10-12T11:33:31.976Z,20.10
2018-10-12T11:36:00.739Z,20.10
2018-10-12T11:38:29.702Z,20.10
2018-10-12T11:40:58.773Z,20.20
2018-10-12T11:43:31.070Z,20.20
2018-10-12T11:46:00.491Z,20.10
2018-10-12T11:48:29.512Z,20.20
2018-10-12T11:50:58.887Z,20.20
2018-10-12T11:53:27.750Z,20.30
2018-10-12T11:55:56.718Z,20.30
2018-10-12T11:58:26.014Z,20.30
2018-10-12T12:00:54.642Z,20.40
2018-10-12T12:03:23.739Z,20.40
2018-10-12T12:05:52.642Z,20.50
2018-10-12T12:08:21.874Z,20.50
2018-10-12T12:10:50.732Z,20.60
2018-10-12T12:13:19.647Z,20.70
2018-10-12T12:15:48.730Z,20.70
2018-10-12T12:18:17.586Z,20.80
2018-10-12T12:20:46.492Z,20.90
2018-10-12T12:23:15.702Z,20.90
2018-10-12T12:25:44.739Z,21.00
2018-10-12T12:28:13.613Z,21.10
2018-10-12T12:30:42.520Z,21.10
2018-10-12T12:33:11.390Z,21.10
2018-10-12T12:35:40.581Z,21.20
2018-10-12T12:38:09.345Z,21.20
2018-10-12T12:40:38.186Z,21.20
2018-10-12T12:43:07.041Z,21.20
2018-10-12T12:45:35.957Z,21.20
2018-10-12T12:48:05.061Z,21.30
2018-10-12T12:50:34.050Z,21.30
2018-10-12T12:53:03.252Z,21.40
2018-10-12T12:55:32.115Z,21.40
2018-10-12T12:58:01.006Z,21.50
2018-10-12T13:00:30.139Z,21.50
2018-10-12T13:02:58.889Z,21.60
2018-10-12T13:05:27.770Z,21.60
2018-10-12T13:07:56.686Z,21.60
2018-10-12T13:10:25.598Z,21.60
2018-10-12T13:12:54.464Z,21.70
2018-10-12T13:15:23.666Z,21.80
2018-10-12T13:17:52.683Z,21.80
2018-10-12T13:20:21.588Z,21.90
2018-10-12T13:22:50.493Z,21.90
2018-10-12T13:25:19.396Z,21.90
2018-10-12T13:27:48.305Z,21.90
2018-10-12T13:30:17.231Z,22.00
2018-10-12T13:32:46.117Z,22.00
2018-10-12T13:35:15.033Z,22.10
2018-10-12T13:37:44.026Z,22.10
2018-10-12T13:40:12.985Z,22.20
2018-10-12T13:42:42.252Z,22.20
2018-10-12T13:45:11.111Z,22.30
2018-10-12T13:47:39.974Z,22.30
2018-10-12T13:50:09.187Z,22.30
2018-10-12T13:52:38.048Z,22.30
2018-10-12T13:55:08.004Z,22.20
2018-10-12T13:57:36.900Z,22.30
2018-10-12T14:00:06.172Z,22.20
2018-10-12T14:02:34.750Z,22.20
2018-10-12T14:05:03.629Z,22.10
2018-10-12T14:07:32.508Z,22.10
2018-10-12T14:10:01.447Z,22.00
2018-10-12T14:12:30.417Z,22.00
2018-10-12T14:14:59.509Z,22.00
2018-10-12T14:17:28.376Z,22.00
2018-10-12T14:19:57.373Z,22.00
2018-10-12T14:22:26.466Z,22.00
2018-10-12T14:24:55.358Z,22.00
2018-10-12T14:27:24.306Z,22.10
2018-10-12T14:29:53.195Z,22.20
2018-10-12T14:32:22.130Z,22.20
2018-10-12T14:34:51.061Z,22.30
2018-10-12T14:37:19.947Z,22.30
2018-10-12T14:39:48.797Z,22.40
2018-10-12T14:42:17.725Z,22.40
2018-10-12T14:44:46.619Z,22.40
2018-10-12T14:47:17.431Z,22.30
2018-10-12T14:49:46.352Z,22.30
2018-10-12T14:52:15.333Z,22.30
2018-10-12T14:54:44.341Z,22.30
2018-10-12T14:57:18.304Z,22.30
2018-10-12T14:59:48.249Z,22.20
2018-10-12T15:02:17.544Z,22.20
2018-10-12T15:04:46.452Z,22.10
2018-10-12T15:07:15.334Z,22.10
2018-10-12T15:09:44.237Z,22.00
2018-10-12T15:12:13.162Z,22.00
2018-10-12T15:14:53.279Z,21.80
2018-10-12T15:17:22.129Z,21.80
2018-10-12T15:19:52.125Z,21.80
2018-10-12T15:22:21.069Z,21.80
2018-10-12T15:24:50.103Z,21.80
2018-10-12T15:27:19.049Z,21.70
2018-10-12T15:29:47.990Z,21.80
2018-10-12T15:34:51.674Z,22.10
2018-10-12T15:37:20.595Z,22.40
2018-10-12T15:39:49.708Z,22.50
2018-10-12T15:42:18.607Z,22.70
2018-10-12T15:44:47.213Z,22.90
2018-10-12T15:47:16.514Z,23.00
2018-10-12T15:49:45.083Z,23.10
2018-10-12T15:52:13.744Z,23.00
2018-10-12T15:54:42.832Z,22.90
2018-10-12T15:57:15.930Z,22.80
2018-10-12T15:59:45.071Z,22.50
2018-10-12T16:02:13.701Z,22.40
2018-10-12T16:04:42.917Z,22.20
2018-10-12T16:07:12.247Z,22.00
2018-10-12T16:09:41.120Z,21.80
2018-10-12T16:12:10.291Z,21.60
2018-10-12T16:14:39.297Z,21.50
2018-10-12T16:17:08.666Z,21.30
2018-10-12T16:19:37.732Z,21.20
2018-10-12T16:22:07.201Z,21.00
2018-10-12T16:24:36.681Z,20.90
2018-10-12T16:27:05.692Z,20.80
2018-10-12T16:29:34.592Z,20.70
2018-10-12T16:32:03.540Z,20.60
2018-10-12T16:34:32.396Z,20.50
2018-10-12T16:37:01.301Z,20.50
2018-10-12T16:39:30.175Z,20.40
2018-10-12T16:42:00.111Z,20.30
2018-10-12T16:44:29.074Z,20.30
2018-10-12T16:46:58.161Z,20.20
2018-10-12T16:49:27.583Z,20.20
2018-10-12T16:51:56.496Z,20.10
2018-10-12T16:54:25.364Z,20.00
2018-10-12T16:56:54.271Z,20.00
2018-10-12T16:59:23.119Z,19.90
2018-10-12T17:01:51.781Z,19.90
2018-10-12T17:04:21.096Z,19.90
2018-10-12T17:06:50.194Z,19.90
2018-10-12T17:09:19.116Z,19.80
2018-10-12T17:11:48.028Z,19.70
2018-10-12T17:14:17.291Z,19.70
2018-10-12T17:16:46.987Z,19.70
2018-10-12T17:19:16.182Z,19.70
2018-10-12T17:21:45.264Z,19.70
2018-10-12T17:24:18.708Z,19.70
2018-10-12T17:26:47.810Z,19.70
2018-10-12T17:29:16.690Z,19.60
2018-10-12T17:31:45.645Z,19.60
2018-10-12T17:34:14.480Z,19.60
2018-10-12T17:36:43.628Z,19.60
2018-10-12T17:39:13.579Z,19.60
2018-10-12T17:41:42.441Z,19.50
2018-10-12T17:44:11.325Z,19.50
2018-10-12T17:46:40.489Z,19.50
2018-10-12T17:49:09.390Z,19.50
2018-10-12T17:51:38.459Z,19.50
2018-10-12T17:54:07.727Z,19.50
2018-10-12T17:56:36.924Z,19.50
2018-10-12T17:59:05.984Z,19.50
2018-10-12T18:01:34.564Z,19.50
2018-10-12T18:04:03.459Z,19.40
2018-10-12T18:06:32.456Z,19.40
2018-10-12T18:09:01.758Z,19.40
2018-10-12T18:11:30.814Z,19.40
2018-10-12T18:14:03.117Z,19.40
2018-10-12T18:16:31.997Z,19.30
2018-10-12T18:19:00.899Z,19.30
2018-10-12T18:21:29.823Z,19.40
2018-10-12T18:23:58.705Z,19.30
2018-10-12T18:26:27.677Z,19.30
2018-10-12T18:28:56.659Z,19.30
2018-10-12T18:31:25.608Z,19.30
2018-10-12T18:33:54.555Z,19.30
2018-10-12T18:36:23.531Z,19.30
2018-10-12T18:38:52.583Z,19.30
2018-10-12T18:41:22.061Z,19.30
2018-10-12T18:43:51.025Z,19.30
2018-10-12T18:46:20.008Z,19.30
2018-10-12T18:48:48.918Z,19.30
2018-10-12T18:51:18.115Z,19.30
2018-10-12T18:53:47.038Z,19.30
2018-10-12T18:56:16.086Z,19.30
2018-10-12T18:58:45.098Z,19.30
2018-10-12T19:01:13.989Z,19.20
2018-10-12T19:03:42.875Z,19.20
2018-10-12T19:06:12.025Z,19.20
2018-10-12T19:08:41.111Z,19.20
2018-10-12T19:11:10.243Z,19.20
2018-10-12T19:13:39.354Z,19.20
2018-10-12T19:16:08.949Z,19.20
2018-10-12T19:18:37.961Z,19.20
2018-10-12T19:21:07.468Z,19.20
2018-10-12T19:23:37.808Z,19.10
2018-10-12T19:26:09.811Z,19.10
2018-10-12T19:28:38.899Z,19.00
2018-10-12T19:31:08.622Z,19.00
2018-10-12T19:33:38.130Z,19.00
2018-10-12T19:36:07.131Z,19.00
2018-10-12T19:38:36.389Z,19.00
2018-10-12T19:41:06.091Z,19.00
2018-10-12T19:43:35.194Z,19.00
2018-10-12T19:46:05.035Z,19.00
2018-10-12T19:48:34.217Z,19.00
2018-10-12T19:51:03.344Z,19.00
2018-10-12T19:53:32.524Z,19.00
2018-10-12T19:56:02.239Z,18.90
2018-10-12T19:58:31.302Z,19.00
2018-10-12T20:00:59.678Z,18.90
2018-10-12T20:03:28.708Z,19.00
2018-10-12T20:05:57.905Z,19.00
2018-10-12T20:08:27.074Z,18.90
2018-10-12T20:10:56.182Z,18.90
2018-10-12T20:13:25.145Z,18.90
2018-10-12T20:15:54.368Z,18.90
2018-10-12T20:18:23.378Z,18.80
2018-10-12T20:20:52.442Z,18.80
2018-10-12T20:23:21.517Z,18.80
2018-10-12T20:25:50.440Z,18.80
2018-10-12T20:28:19.818Z,18.80
2018-10-12T20:30:49.151Z,18.80
2018-10-12T20:33:19.051Z,18.80
2018-10-12T20:35:48.425Z,18.80
2018-10-12T20:38:17.927Z,18.80
2018-10-12T20:40:47.089Z,18.80
2018-10-12T20:43:16.415Z,18.70
2018-10-12T20:45:45.443Z,18.70
2018-10-12T20:48:14.497Z,18.70
2018-10-12T20:50:43.675Z,18.70
2018-10-12T20:53:13.064Z,18.70
2018-10-12T20:55:42.127Z,18.70
2018-10-12T20:58:16.261Z,18.60
2018-10-12T21:00:45.698Z,18.60
2018-10-12T21:03:14.622Z,18.60
2018-10-12T21:05:43.871Z,18.60
2018-10-12T21:08:13.086Z,18.60
2018-10-12T21:10:42.388Z,18.50
2018-10-12T21:13:11.432Z,18.60
2018-10-12T21:15:40.328Z,18.50
2018-10-12T21:18:09.358Z,18.50
2018-10-12T21:20:38.436Z,18.50
2018-10-12T21:23:07.500Z,18.50
2018-10-12T21:25:36.561Z,18.50
2018-10-12T21:28:06.027Z,18.40
2018-10-12T21:30:35.333Z,18.40
2018-10-12T21:33:04.351Z,18.40
2018-10-12T21:35:33.604Z,18.40
2018-10-12T21:38:02.715Z,18.40
2018-10-12T21:40:31.635Z,18.30
2018-10-12T21:43:00.590Z,18.30
2018-10-12T21:45:29.480Z,18.30
2018-10-12T21:47:58.403Z,18.30
2018-10-12T21:50:27.358Z,18.20
2018-10-12T21:52:56.391Z,18.20
2018-10-12T21:55:25.296Z,18.20
2018-10-12T21:57:54.307Z,18.10
2018-10-12T22:00:23.578Z,18.10
2018-10-12T22:02:52.492Z,18.10
2018-10-12T22:05:21.430Z,18.10
2018-10-12T22:07:50.386Z,18.10
2018-10-12T22:10:19.298Z,18.00
2018-10-12T22:12:51.491Z,18.00
2018-10-12T22:15:20.753Z,18.00
2018-10-12T22:17:49.899Z,18.00
2018-10-12T22:20:18.884Z,17.90
2018-10-12T22:22:47.844Z,17.90
2018-10-12T22:25:17.171Z,17.90
2018-10-12T22:27:46.714Z,17.90
2018-10-12T22:30:15.868Z,17.90
2018-10-12T22:32:44.772Z,17.90
2018-10-12T22:35:13.695Z,17.80
2018-10-12T22:37:42.601Z,17.80
2018-10-12T22:40:11.509Z,17.80
2018-10-12T22:42:40.441Z,17.80
2018-10-12T22:45:09.868Z,17.70
2018-10-12T22:47:38.787Z,17.70
2018-10-12T22:50:07.671Z,17.60
2018-10-12T22:52:36.555Z,17.60
2018-10-12T22:55:05.569Z,17.60
2018-10-12T22:57:34.445Z,17.60
2018-10-12T23:00:03.341Z,17.60
2018-10-12T23:02:32.569Z,17.50
2018-10-12T23:05:01.431Z,17.60
2018-10-12T23:07:30.517Z,17.60
2018-10-12T23:09:59.373Z,17.50
2018-10-12T23:12:28.296Z,17.50
2018-10-12T23:14:57.335Z,17.50
2018-10-12T23:17:26.175Z,17.50
2018-10-12T23:19:55.115Z,17.50
2018-10-12T23:22:24.336Z,17.50
2018-10-12T23:24:53.189Z,17.50
2018-10-12T23:27:22.045Z,17.40
2018-10-12T23:29:50.908Z,17.40
2018-10-12T23:32:19.849Z,17.40
2018-10-12T23:34:48.666Z,17.40
2018-10-12T23:37:17.552Z,17.40
2018-10-12T23:39:46.411Z,17.30
2018-10-12T23:42:15.399Z,17.30
2018-10-12T23:44:44.275Z,17.30
2018-10-12T23:47:13.211Z,17.30
2018-10-12T23:49:42.306Z,17.30
2018-10-12T23:52:11.517Z,17.20
2018-10-12T23:54:40.397Z,17.20
2018-10-12T23:57:09.252Z,17.20
2018-10-12T23:59:38.109Z,17.20
